sensor_id;sensor_type;location;lat;lon;timestamp;P1;durP1;ratioP1;P2;durP2;ratioP2
1350;SDS011;669;50.206;9.998;2022-08-02T00:01:41;1.13;;;1.13;;
1350;SDS011;669;50.206;9.998;2022-08-02T00:04:10;1.17;;;1.17;;
1350;SDS011;669;50.206;9.998;2022-08-02T00:06:38;1.10;;;1.10;;
1350;SDS011;669;50.206;9.998;2022-08-02T00:09:06;1.30;;;1.30;;
1350;SDS011;669;50.206;9.998;2022-08-02T00:11:34;1.10;;;1.10;;
1350;SDS011;669;50.206;9.998;2022-08-02T00:14:03;1.53;;;1.43;;
1350;SDS011;669;50.206;9.998;2022-08-02T00:16:31;1.30;;;1.30;;
1350;SDS011;669;50.206;9.998;2022-08-02T00:19:03;3.00;;;1.33;;
1350;SDS011;669;50.206;9.998;2022-08-02T00:21:31;1.23;;;1.20;;
1350;SDS011;669;50.206;9.998;2022-08-02T00:23:59;1.40;;;1.30;;
1350;SDS011;669;50.206;9.998;2022-08-02T00:26:47;1.90;;;1.17;;
1350;SDS011;669;50.206;9.998;2022-08-02T00:29:16;1.23;;;1.23;;
1350;SDS011;669;50.206;9.998;2022-08-02T00:31:44;0.80;;;0.80;;
1350;SDS011;669;50.206;9.998;2022-08-02T00:34:12;1.33;;;1.30;;
1350;SDS011;669;50.206;9.998;2022-08-02T00:36:57;1.40;;;1.30;;
1350;SDS011;669;50.206;9.998;2022-08-02T00:39:25;1.40;;;1.40;;
1350;SDS011;669;50.206;9.998;2022-08-02T00:42:00;1.00;;;1.00;;
1350;SDS011;669;50.206;9.998;2022-08-02T00:44:30;1.47;;;1.37;;
1350;SDS011;669;50.206;9.998;2022-08-02T00:46:58;1.00;;;1.00;;
1350;SDS011;669;50.206;9.998;2022-08-02T00:49:27;1.33;;;1.33;;
1350;SDS011;669;50.206;9.998;2022-08-02T00:51:55;1.30;;;1.30;;
1350;SDS011;669;50.206;9.998;2022-08-02T00:54:23;1.27;;;1.27;;
1350;SDS011;669;50.206;9.998;2022-08-02T00:56:50;1.30;;;1.30;;
1350;SDS011;669;50.206;9.998;2022-08-02T00:59:18;1.30;;;1.30;;
1350;SDS011;669;50.206;9.998;2022-08-02T01:01:48;1.10;;;1.10;;
1350;SDS011;669;50.206;9.998;2022-08-02T01:04:23;1.47;;;1.47;;
1350;SDS011;669;50.206;9.998;2022-08-02T01:06:57;1.33;;;1.23;;
1350;SDS011;669;50.206;9.998;2022-08-02T01:09:25;1.30;;;1.20;;
1350;SDS011;669;50.206;9.998;2022-08-02T01:11:53;1.20;;;1.20;;
1350;SDS011;669;50.206;9.998;2022-08-02T01:14:21;1.27;;;1.27;;
1350;SDS011;669;50.206;9.998;2022-08-02T01:16:53;1.10;;;1.10;;
1350;SDS011;669;50.206;9.998;2022-08-02T01:19:30;1.10;;;1.10;;
1350;SDS011;669;50.206;9.998;2022-08-02T01:22:21;1.47;;;1.47;;
1350;SDS011;669;50.206;9.998;2022-08-02T01:25:27;1.40;;;1.40;;
1350;SDS011;669;50.206;9.998;2022-08-02T01:28:09;1.37;;;1.37;;
1350;SDS011;669;50.206;9.998;2022-08-02T01:30:49;1.70;;;1.60;;
1350;SDS011;669;50.206;9.998;2022-08-02T01:33:22;1.60;;;1.50;;
1350;SDS011;669;50.206;9.998;2022-08-02T01:35:57;1.33;;;1.33;;
1350;SDS011;669;50.206;9.998;2022-08-02T01:38:30;1.30;;;1.30;;
1350;SDS011;669;50.206;9.998;2022-08-02T01:41:01;1.47;;;1.47;;
1350;SDS011;669;50.206;9.998;2022-08-02T01:43:34;1.33;;;1.33;;
1350;SDS011;669;50.206;9.998;2022-08-02T01:46:04;1.10;;;1.10;;
1350;SDS011;669;50.206;9.998;2022-08-02T01:48:33;1.30;;;1.30;;
1350;SDS011;669;50.206;9.998;2022-08-02T01:51:01;1.70;;;1.60;;
1350;SDS011;669;50.206;9.998;2022-08-02T01:53:30;1.30;;;1.30;;
1350;SDS011;669;50.206;9.998;2022-08-02T01:55:59;1.40;;;1.40;;
1350;SDS011;669;50.206;9.998;2022-08-02T01:58:30;1.43;;;1.40;;
1350;SDS011;669;50.206;9.998;2022-08-02T02:01:02;1.73;;;1.67;;
1350;SDS011;669;50.206;9.998;2022-08-02T02:03:32;1.50;;;1.50;;
1350;SDS011;669;50.206;9.998;2022-08-02T02:06:07;1.37;;;1.37;;
1350;SDS011;669;50.206;9.998;2022-08-02T02:08:38;1.60;;;1.50;;
1350;SDS011;669;50.206;9.998;2022-08-02T02:11:07;1.60;;;1.50;;
1350;SDS011;669;50.206;9.998;2022-08-02T02:13:56;1.80;;;1.70;;
1350;SDS011;669;50.206;9.998;2022-08-02T02:16:28;1.30;;;1.30;;
1350;SDS011;669;50.206;9.998;2022-08-02T02:18:58;1.40;;;1.30;;
1350;SDS011;669;50.206;9.998;2022-08-02T02:21:28;1.57;;;1.47;;
1350;SDS011;669;50.206;9.998;2022-08-02T02:23:57;2.13;;;2.03;;
1350;SDS011;669;50.206;9.998;2022-08-02T02:26:25;1.50;;;1.50;;
1350;SDS011;669;50.206;9.998;2022-08-02T02:28:57;1.30;;;1.30;;
1350;SDS011;669;50.206;9.998;2022-08-02T02:31:29;1.70;;;1.60;;
1350;SDS011;669;50.206;9.998;2022-08-02T02:34:01;1.90;;;1.40;;
1350;SDS011;669;50.206;9.998;2022-08-02T02:36:32;1.50;;;1.50;;
1350;SDS011;669;50.206;9.998;2022-08-02T02:39:02;3.20;;;1.70;;
1350;SDS011;669;50.206;9.998;2022-08-02T02:41:38;1.63;;;1.53;;
1350;SDS011;669;50.206;9.998;2022-08-02T02:44:09;1.80;;;1.70;;
1350;SDS011;669;50.206;9.998;2022-08-02T02:46:42;1.60;;;1.60;;
1350;SDS011;669;50.206;9.998;2022-08-02T02:49:11;1.83;;;1.73;;
1350;SDS011;669;50.206;9.998;2022-08-02T02:51:41;1.80;;;1.73;;
1350;SDS011;669;50.206;9.998;2022-08-02T02:54:11;1.73;;;1.63;;
1350;SDS011;669;50.206;9.998;2022-08-02T02:56:59;1.90;;;1.80;;
1350;SDS011;669;50.206;9.998;2022-08-02T02:59:28;1.63;;;1.47;;
1350;SDS011;669;50.206;9.998;2022-08-02T03:01:58;1.90;;;1.80;;
1350;SDS011;669;50.206;9.998;2022-08-02T03:04:28;1.73;;;1.70;;
1350;SDS011;669;50.206;9.998;2022-08-02T03:07:17;1.57;;;1.57;;
1350;SDS011;669;50.206;9.998;2022-08-02T03:09:46;1.60;;;1.50;;
1350;SDS011;669;50.206;9.998;2022-08-02T03:12:20;1.90;;;1.80;;
1350;SDS011;669;50.206;9.998;2022-08-02T03:14:57;1.40;;;1.40;;
1350;SDS011;669;50.206;9.998;2022-08-02T03:17:37;2.10;;;2.00;;
1350;SDS011;669;50.206;9.998;2022-08-02T03:20:07;1.93;;;1.83;;
1350;SDS011;669;50.206;9.998;2022-08-02T03:22:37;1.67;;;1.57;;
1350;SDS011;669;50.206;9.998;2022-08-02T03:25:05;1.40;;;1.40;;
1350;SDS011;669;50.206;9.998;2022-08-02T03:27:34;1.67;;;1.57;;
1350;SDS011;669;50.206;9.998;2022-08-02T03:30:02;1.60;;;1.60;;
1350;SDS011;669;50.206;9.998;2022-08-02T03:32:33;1.37;;;1.37;;
1350;SDS011;669;50.206;9.998;2022-08-02T03:35:04;1.30;;;1.30;;
1350;SDS011;669;50.206;9.998;2022-08-02T03:37:34;1.57;;;1.47;;
1350;SDS011;669;50.206;9.998;2022-08-02T03:40:03;1.90;;;1.80;;
1350;SDS011;669;50.206;9.998;2022-08-02T03:42:34;1.80;;;1.70;;
1350;SDS011;669;50.206;9.998;2022-08-02T03:45:02;1.40;;;1.40;;
1350;SDS011;669;50.206;9.998;2022-08-02T03:47:34;1.23;;;1.20;;
1350;SDS011;669;50.206;9.998;2022-08-02T03:50:06;2.00;;;1.90;;
1350;SDS011;669;50.206;9.998;2022-08-02T03:52:34;1.80;;;1.70;;
1350;SDS011;669;50.206;9.998;2022-08-02T03:55:03;1.90;;;1.80;;
1350;SDS011;669;50.206;9.998;2022-08-02T03:57:31;3.33;;;1.80;;
1350;SDS011;669;50.206;9.998;2022-08-02T04:00:00;1.80;;;1.70;;
1350;SDS011;669;50.206;9.998;2022-08-02T04:02:28;1.57;;;1.57;;
1350;SDS011;669;50.206;9.998;2022-08-02T04:04:56;1.90;;;1.80;;
1350;SDS011;669;50.206;9.998;2022-08-02T04:07:25;2.03;;;1.93;;
1350;SDS011;669;50.206;9.998;2022-08-02T04:10:13;1.93;;;1.83;;
1350;SDS011;669;50.206;9.998;2022-08-02T04:12:41;1.77;;;1.67;;
1350;SDS011;669;50.206;9.998;2022-08-02T04:15:10;2.07;;;1.97;;
1350;SDS011;669;50.206;9.998;2022-08-02T04:17:41;1.93;;;1.83;;
1350;SDS011;669;50.206;9.998;2022-08-02T04:20:13;2.10;;;2.00;;
1350;SDS011;669;50.206;9.998;2022-08-02T04:22:48;2.00;;;1.90;;
1350;SDS011;669;50.206;9.998;2022-08-02T04:25:19;2.20;;;2.00;;
1350;SDS011;669;50.206;9.998;2022-08-02T04:28:06;1.77;;;1.70;;
1350;SDS011;669;50.206;9.998;2022-08-02T04:30:43;1.63;;;1.53;;
1350;SDS011;669;50.206;9.998;2022-08-02T04:33:12;2.03;;;1.93;;
1350;SDS011;669;50.206;9.998;2022-08-02T04:35:41;2.33;;;2.23;;
1350;SDS011;669;50.206;9.998;2022-08-02T04:38:11;2.20;;;2.10;;
1350;SDS011;669;50.206;9.998;2022-08-02T04:40:39;2.20;;;2.10;;
1350;SDS011;669;50.206;9.998;2022-08-02T04:43:15;1.73;;;1.63;;
1350;SDS011;669;50.206;9.998;2022-08-02T04:45:43;2.50;;;2.30;;
1350;SDS011;669;50.206;9.998;2022-08-02T04:48:14;2.10;;;2.00;;
1350;SDS011;669;50.206;9.998;2022-08-02T04:50:42;2.43;;;2.33;;
1350;SDS011;669;50.206;9.998;2022-08-02T04:53:11;1.50;;;1.50;;
1350;SDS011;669;50.206;9.998;2022-08-02T04:55:40;1.90;;;1.80;;
1350;SDS011;669;50.206;9.998;2022-08-02T04:58:08;2.43;;;1.60;;
1350;SDS011;669;50.206;9.998;2022-08-02T05:00:56;2.07;;;1.87;;
1350;SDS011;669;50.206;9.998;2022-08-02T05:03:24;1.40;;;1.30;;
1350;SDS011;669;50.206;9.998;2022-08-02T05:05:52;1.53;;;1.43;;
1350;SDS011;669;50.206;9.998;2022-08-02T05:08:21;1.90;;;1.80;;
1350;SDS011;669;50.206;9.998;2022-08-02T05:10:49;1.73;;;1.70;;
1350;SDS011;669;50.206;9.998;2022-08-02T05:13:17;1.70;;;1.70;;
1350;SDS011;669;50.206;9.998;2022-08-02T05:15:46;1.50;;;1.50;;
1350;SDS011;669;50.206;9.998;2022-08-02T05:18:14;1.37;;;1.30;;
1350;SDS011;669;50.206;9.998;2022-08-02T05:20:43;1.10;;;1.10;;
1350;SDS011;669;50.206;9.998;2022-08-02T05:23:11;1.83;;;1.73;;
1350;SDS011;669;50.206;9.998;2022-08-02T05:25:40;1.60;;;1.50;;
1350;SDS011;669;50.206;9.998;2022-08-02T05:28:08;1.70;;;1.60;;
1350;SDS011;669;50.206;9.998;2022-08-02T05:30:37;1.70;;;1.60;;
1350;SDS011;669;50.206;9.998;2022-08-02T05:33:05;1.70;;;1.60;;
1350;SDS011;669;50.206;9.998;2022-08-02T05:35:33;1.83;;;1.73;;
1350;SDS011;669;50.206;9.998;2022-08-02T05:38:01;1.73;;;1.63;;
1350;SDS011;669;50.206;9.998;2022-08-02T05:40:35;1.50;;;1.50;;
1350;SDS011;669;50.206;9.998;2022-08-02T05:43:21;3.43;;;1.83;;
1350;SDS011;669;50.206;9.998;2022-08-02T05:45:49;1.87;;;1.77;;
1350;SDS011;669;50.206;9.998;2022-08-02T05:48:19;2.00;;;1.90;;
1350;SDS011;669;50.206;9.998;2022-08-02T05:50:57;1.93;;;1.83;;
1350;SDS011;669;50.206;9.998;2022-08-02T05:53:32;1.50;;;1.50;;
1350;SDS011;669;50.206;9.998;2022-08-02T05:56:08;1.67;;;1.57;;
1350;SDS011;669;50.206;9.998;2022-08-02T05:58:48;2.07;;;1.97;;
1350;SDS011;669;50.206;9.998;2022-08-02T06:01:20;2.33;;;2.00;;
1350;SDS011;669;50.206;9.998;2022-08-02T06:03:55;1.70;;;1.60;;
1350;SDS011;669;50.206;9.998;2022-08-02T06:06:24;1.87;;;1.73;;
1350;SDS011;669;50.206;9.998;2022-08-02T06:08:54;1.47;;;1.47;;
1350;SDS011;669;50.206;9.998;2022-08-02T06:11:30;1.93;;;1.83;;
1350;SDS011;669;50.206;9.998;2022-08-02T06:14:03;1.90;;;1.83;;
1350;SDS011;669;50.206;9.998;2022-08-02T06:16:33;1.87;;;1.77;;
1350;SDS011;669;50.206;9.998;2022-08-02T06:19:08;1.63;;;1.63;;
1350;SDS011;669;50.206;9.998;2022-08-02T06:21:38;1.80;;;1.70;;
1350;SDS011;669;50.206;9.998;2022-08-02T06:24:26;1.90;;;1.80;;
1350;SDS011;669;50.206;9.998;2022-08-02T06:26:56;1.70;;;1.60;;
1350;SDS011;669;50.206;9.998;2022-08-02T06:29:27;1.13;;;1.13;;
1350;SDS011;669;50.206;9.998;2022-08-02T06:32:04;2.00;;;1.50;;
1350;SDS011;669;50.206;9.998;2022-08-02T06:34:35;1.37;;;1.37;;
1350;SDS011;669;50.206;9.998;2022-08-02T06:37:05;1.40;;;1.30;;
1350;SDS011;669;50.206;9.998;2022-08-02T06:39:42;1.80;;;1.70;;
1350;SDS011;669;50.206;9.998;2022-08-02T06:42:12;1.13;;;1.13;;
1350;SDS011;669;50.206;9.998;2022-08-02T06:44:54;1.47;;;1.37;;
1350;SDS011;669;50.206;9.998;2022-08-02T06:47:23;1.40;;;1.40;;
1350;SDS011;669;50.206;9.998;2022-08-02T06:49:51;2.80;;;1.50;;
1350;SDS011;669;50.206;9.998;2022-08-02T06:52:23;2.00;;;1.90;;
1350;SDS011;669;50.206;9.998;2022-08-02T06:54:55;2.00;;;1.80;;
1350;SDS011;669;50.206;9.998;2022-08-02T06:57:24;1.67;;;1.57;;
1350;SDS011;669;50.206;9.998;2022-08-02T06:59:54;4.70;;;2.00;;
1350;SDS011;669;50.206;9.998;2022-08-02T07:02:23;1.70;;;1.60;;
1350;SDS011;669;50.206;9.998;2022-08-02T07:04:51;1.13;;;1.13;;
1350;SDS011;669;50.206;9.998;2022-08-02T07:07:19;1.80;;;1.40;;
1350;SDS011;669;50.206;9.998;2022-08-02T07:09:47;1.33;;;1.33;;
1350;SDS011;669;50.206;9.998;2022-08-02T07:12:26;1.10;;;1.10;;
1350;SDS011;669;50.206;9.998;2022-08-02T07:14:57;1.90;;;1.80;;
1350;SDS011;669;50.206;9.998;2022-08-02T07:17:25;1.53;;;1.30;;
1350;SDS011;669;50.206;9.998;2022-08-02T07:19:53;1.47;;;1.47;;
1350;SDS011;669;50.206;9.998;2022-08-02T07:22:22;1.60;;;1.50;;
1350;SDS011;669;50.206;9.998;2022-08-02T07:24:52;2.33;;;1.73;;
1350;SDS011;669;50.206;9.998;2022-08-02T07:27:21;1.80;;;1.50;;
1350;SDS011;669;50.206;9.998;2022-08-02T07:29:50;1.20;;;1.20;;
1350;SDS011;669;50.206;9.998;2022-08-02T07:32:20;1.20;;;1.10;;
1350;SDS011;669;50.206;9.998;2022-08-02T07:34:50;1.50;;;1.40;;
1350;SDS011;669;50.206;9.998;2022-08-02T07:37:20;1.40;;;1.40;;
1350;SDS011;669;50.206;9.998;2022-08-02T07:40:10;1.60;;;1.60;;
1350;SDS011;669;50.206;9.998;2022-08-02T07:42:45;1.50;;;1.50;;
1350;SDS011;669;50.206;9.998;2022-08-02T07:45:14;1.30;;;1.30;;
1350;SDS011;669;50.206;9.998;2022-08-02T07:47:43;1.90;;;1.50;;
1350;SDS011;669;50.206;9.998;2022-08-02T07:50:12;1.80;;;1.67;;
1350;SDS011;669;50.206;9.998;2022-08-02T07:52:42;1.33;;;1.23;;
1350;SDS011;669;50.206;9.998;2022-08-02T07:55:12;1.60;;;1.20;;
1350;SDS011;669;50.206;9.998;2022-08-02T07:57:42;3.30;;;1.13;;
1350;SDS011;669;50.206;9.998;2022-08-02T08:00:12;1.70;;;1.60;;
1350;SDS011;669;50.206;9.998;2022-08-02T08:02:44;1.37;;;1.27;;
1350;SDS011;669;50.206;9.998;2022-08-02T08:05:12;1.40;;;1.40;;
1350;SDS011;669;50.206;9.998;2022-08-02T08:07:40;1.33;;;1.23;;
1350;SDS011;669;50.206;9.998;2022-08-02T08:10:08;1.17;;;1.17;;
1350;SDS011;669;50.206;9.998;2022-08-02T08:12:37;1.87;;;1.30;;
1350;SDS011;669;50.206;9.998;2022-08-02T08:15:05;1.47;;;1.37;;
1350;SDS011;669;50.206;9.998;2022-08-02T08:17:34;1.30;;;1.20;;
1350;SDS011;669;50.206;9.998;2022-08-02T08:20:04;1.30;;;1.20;;
1350;SDS011;669;50.206;9.998;2022-08-02T08:22:36;1.37;;;1.37;;
1350;SDS011;669;50.206;9.998;2022-08-02T08:25:04;0.90;;;0.90;;
1350;SDS011;669;50.206;9.998;2022-08-02T08:27:33;3.83;;;2.13;;
1350;SDS011;669;50.206;9.998;2022-08-02T08:30:01;1.40;;;1.40;;
1350;SDS011;669;50.206;9.998;2022-08-02T08:32:29;1.80;;;1.70;;
1350;SDS011;669;50.206;9.998;2022-08-02T08:34:57;1.60;;;1.50;;
1350;SDS011;669;50.206;9.998;2022-08-02T08:37:29;1.60;;;1.50;;
1350;SDS011;669;50.206;9.998;2022-08-02T08:40:00;1.20;;;1.20;;
1350;SDS011;669;50.206;9.998;2022-08-02T08:42:29;1.47;;;1.37;;
1350;SDS011;669;50.206;9.998;2022-08-02T08:44:58;1.27;;;1.17;;
1350;SDS011;669;50.206;9.998;2022-08-02T08:47:27;1.07;;;1.07;;
1350;SDS011;669;50.206;9.998;2022-08-02T08:50:00;1.00;;;1.00;;
1350;SDS011;669;50.206;9.998;2022-08-02T08:52:35;1.20;;;1.10;;
1350;SDS011;669;50.206;9.998;2022-08-02T08:55:08;1.00;;;1.00;;
1350;SDS011;669;50.206;9.998;2022-08-02T08:57:39;0.87;;;0.87;;
1350;SDS011;669;50.206;9.998;2022-08-02T09:00:08;1.43;;;1.13;;
1350;SDS011;669;50.206;9.998;2022-08-02T09:02:39;3.13;;;1.17;;
1350;SDS011;669;50.206;9.998;2022-08-02T09:05:08;2.00;;;0.83;;
1350;SDS011;669;50.206;9.998;2022-08-02T09:07:39;1.63;;;1.00;;
1350;SDS011;669;50.206;9.998;2022-08-02T09:13:07;4.20;;;0.80;;
1350;SDS011;669;50.206;9.998;2022-08-02T09:15:57;1.00;;;1.00;;
1350;SDS011;669;50.206;9.998;2022-08-02T09:18:39;1.00;;;1.00;;
1350;SDS011;669;50.206;9.998;2022-08-02T09:21:11;1.03;;;1.03;;
1350;SDS011;669;50.206;9.998;2022-08-02T09:23:42;1.50;;;1.27;;
1350;SDS011;669;50.206;9.998;2022-08-02T09:26:12;0.80;;;0.80;;
1350;SDS011;669;50.206;9.998;2022-08-02T09:28:43;0.93;;;0.93;;
1350;SDS011;669;50.206;9.998;2022-08-02T09:31:12;1.27;;;1.27;;
1350;SDS011;669;50.206;9.998;2022-08-02T09:33:42;0.90;;;0.90;;
1350;SDS011;669;50.206;9.998;2022-08-02T09:36:12;1.00;;;1.00;;
1350;SDS011;669;50.206;9.998;2022-08-02T09:38:51;0.90;;;0.90;;
1350;SDS011;669;50.206;9.998;2022-08-02T09:41:22;0.90;;;0.90;;
1350;SDS011;669;50.206;9.998;2022-08-02T09:43:51;0.90;;;0.90;;
1350;SDS011;669;50.206;9.998;2022-08-02T09:46:32;1.00;;;1.00;;
1350;SDS011;669;50.206;9.998;2022-08-02T09:49:04;1.00;;;1.00;;
1350;SDS011;669;50.206;9.998;2022-08-02T09:51:35;1.27;;;0.90;;
1350;SDS011;669;50.206;9.998;2022-08-02T09:54:06;1.00;;;1.00;;
1350;SDS011;669;50.206;9.998;2022-08-02T09:56:39;1.40;;;1.20;;
1350;SDS011;669;50.206;9.998;2022-08-02T09:59:09;1.30;;;1.30;;
1350;SDS011;669;50.206;9.998;2022-08-02T10:01:38;1.10;;;1.10;;
1350;SDS011;669;50.206;9.998;2022-08-02T10:04:24;1.17;;;1.17;;
1350;SDS011;669;50.206;9.998;2022-08-02T10:06:55;1.03;;;1.00;;
1350;SDS011;669;50.206;9.998;2022-08-02T10:09:26;1.53;;;1.43;;
1350;SDS011;669;50.206;9.998;2022-08-02T10:11:54;2.70;;;1.47;;
1350;SDS011;669;50.206;9.998;2022-08-02T10:14:23;0.77;;;0.77;;
1350;SDS011;669;50.206;9.998;2022-08-02T10:16:52;1.10;;;1.10;;
1350;SDS011;669;50.206;9.998;2022-08-02T10:19:22;1.10;;;1.10;;
1350;SDS011;669;50.206;9.998;2022-08-02T10:22:12;0.80;;;0.80;;
1350;SDS011;669;50.206;9.998;2022-08-02T10:24:46;2.00;;;1.00;;
1350;SDS011;669;50.206;9.998;2022-08-02T10:27:16;1.47;;;1.03;;
1350;SDS011;669;50.206;9.998;2022-08-02T10:29:46;0.93;;;0.93;;
1350;SDS011;669;50.206;9.998;2022-08-02T10:32:23;0.90;;;0.90;;
1350;SDS011;669;50.206;9.998;2022-08-02T10:34:54;1.40;;;1.13;;
1350;SDS011;669;50.206;9.998;2022-08-02T10:37:45;2.10;;;1.03;;
1350;SDS011;669;50.206;9.998;2022-08-02T10:40:18;0.80;;;0.80;;
1350;SDS011;669;50.206;9.998;2022-08-02T10:42:52;1.73;;;0.90;;
1350;SDS011;669;50.206;9.998;2022-08-02T10:45:26;4.87;;;1.10;;
1350;SDS011;669;50.206;9.998;2022-08-02T10:47:55;1.00;;;0.80;;
1350;SDS011;669;50.206;9.998;2022-08-02T10:53:22;1.27;;;1.27;;
1350;SDS011;669;50.206;9.998;2022-08-02T10:55:53;1.37;;;1.17;;
1350;SDS011;669;50.206;9.998;2022-08-02T10:58:23;0.90;;;0.90;;
1350;SDS011;669;50.206;9.998;2022-08-02T11:00:55;3.70;;;0.90;;
1350;SDS011;669;50.206;9.998;2022-08-02T11:03:33;1.30;;;1.20;;
1350;SDS011;669;50.206;9.998;2022-08-02T11:06:07;1.43;;;1.07;;
1350;SDS011;669;50.206;9.998;2022-08-02T11:12:03;0.90;;;0.90;;
1350;SDS011;669;50.206;9.998;2022-08-02T11:14:33;1.13;;;1.00;;
1350;SDS011;669;50.206;9.998;2022-08-02T11:17:12;0.90;;;0.90;;
1350;SDS011;669;50.206;9.998;2022-08-02T11:22:43;1.00;;;1.00;;
1350;SDS011;669;50.206;9.998;2022-08-02T11:28:20;1.00;;;1.00;;
1350;SDS011;669;50.206;9.998;2022-08-02T11:30:57;1.20;;;1.20;;
1350;SDS011;669;50.206;9.998;2022-08-02T11:33:30;1.07;;;1.07;;
1350;SDS011;669;50.206;9.998;2022-08-02T11:36:00;1.27;;;1.27;;
1350;SDS011;669;50.206;9.998;2022-08-02T11:38:29;5.53;;;0.70;;
1350;SDS011;669;50.206;9.998;2022-08-02T11:40:57;0.97;;;0.97;;
1350;SDS011;669;50.206;9.998;2022-08-02T11:43:36;1.00;;;1.00;;
1350;SDS011;669;50.206;9.998;2022-08-02T11:46:11;1.20;;;1.20;;
1350;SDS011;669;50.206;9.998;2022-08-02T11:48:40;1.17;;;1.17;;
1350;SDS011;669;50.206;9.998;2022-08-02T11:51:10;0.80;;;0.80;;
1350;SDS011;669;50.206;9.998;2022-08-02T11:53:43;1.00;;;1.00;;
1350;SDS011;669;50.206;9.998;2022-08-02T11:56:15;1.27;;;1.20;;
1350;SDS011;669;50.206;9.998;2022-08-02T11:59:05;1.40;;;1.00;;
1350;SDS011;669;50.206;9.998;2022-08-02T12:01:36;1.07;;;1.07;;
1350;SDS011;669;50.206;9.998;2022-08-02T12:04:14;0.90;;;0.90;;
1350;SDS011;669;50.206;9.998;2022-08-02T12:06:54;1.00;;;1.00;;
1350;SDS011;669;50.206;9.998;2022-08-02T12:09:24;1.00;;;1.00;;
1350;SDS011;669;50.206;9.998;2022-08-02T12:11:54;1.10;;;1.10;;
1350;SDS011;669;50.206;9.998;2022-08-02T12:14:24;0.80;;;0.80;;
1350;SDS011;669;50.206;9.998;2022-08-02T12:16:54;1.00;;;1.00;;
1350;SDS011;669;50.206;9.998;2022-08-02T12:19:40;2.10;;;1.23;;
1350;SDS011;669;50.206;9.998;2022-08-02T12:22:10;0.90;;;0.90;;
1350;SDS011;669;50.206;9.998;2022-08-02T12:24:42;1.50;;;1.10;;
1350;SDS011;669;50.206;9.998;2022-08-02T12:27:26;0.93;;;0.93;;
1350;SDS011;669;50.206;9.998;2022-08-02T12:30:00;1.30;;;1.20;;
1350;SDS011;669;50.206;9.998;2022-08-02T12:32:31;0.83;;;0.83;;
1350;SDS011;669;50.206;9.998;2022-08-02T12:35:00;1.00;;;1.00;;
1350;SDS011;669;50.206;9.998;2022-08-02T12:37:33;1.13;;;1.13;;
1350;SDS011;669;50.206;9.998;2022-08-02T12:42:52;1.10;;;1.10;;
1350;SDS011;669;50.206;9.998;2022-08-02T12:45:23;1.00;;;1.00;;
1350;SDS011;669;50.206;9.998;2022-08-02T12:48:06;1.40;;;1.30;;
1350;SDS011;669;50.206;9.998;2022-08-02T12:50:35;1.40;;;1.40;;
1350;SDS011;669;50.206;9.998;2022-08-02T12:53:05;1.10;;;1.10;;
1350;SDS011;669;50.206;9.998;2022-08-02T12:55:34;0.87;;;0.87;;
1350;SDS011;669;50.206;9.998;2022-08-02T12:58:25;1.00;;;1.00;;
1350;SDS011;669;50.206;9.998;2022-08-02T13:00:57;0.80;;;0.80;;
1350;SDS011;669;50.206;9.998;2022-08-02T13:03:26;2.87;;;1.27;;
1350;SDS011;669;50.206;9.998;2022-08-02T13:06:15;1.10;;;1.10;;
1350;SDS011;669;50.206;9.998;2022-08-02T13:09:10;0.90;;;0.90;;
1350;SDS011;669;50.206;9.998;2022-08-02T13:11:39;1.10;;;1.10;;
1350;SDS011;669;50.206;9.998;2022-08-02T13:14:09;1.00;;;1.00;;
1350;SDS011;669;50.206;9.998;2022-08-02T13:16:39;1.73;;;1.63;;
1350;SDS011;669;50.206;9.998;2022-08-02T13:19:08;1.30;;;1.10;;
1350;SDS011;669;50.206;9.998;2022-08-02T13:21:36;1.03;;;1.03;;
1350;SDS011;669;50.206;9.998;2022-08-02T13:24:24;1.60;;;1.50;;
1350;SDS011;669;50.206;9.998;2022-08-02T13:27:05;1.00;;;1.00;;
1350;SDS011;669;50.206;9.998;2022-08-02T13:29:34;1.53;;;1.10;;
1350;SDS011;669;50.206;9.998;2022-08-02T13:32:04;1.43;;;1.33;;
1350;SDS011;669;50.206;9.998;2022-08-02T13:34:32;3.80;;;1.10;;
1350;SDS011;669;50.206;9.998;2022-08-02T13:37:01;1.20;;;1.20;;
1350;SDS011;669;50.206;9.998;2022-08-02T13:39:29;1.50;;;1.40;;
1350;SDS011;669;50.206;9.998;2022-08-02T13:41:57;1.13;;;1.13;;
1350;SDS011;669;50.206;9.998;2022-08-02T13:44:25;0.93;;;0.93;;
1350;SDS011;669;50.206;9.998;2022-08-02T13:46:54;1.20;;;1.10;;
1350;SDS011;669;50.206;9.998;2022-08-02T13:49:23;1.20;;;1.13;;
1350;SDS011;669;50.206;9.998;2022-08-02T13:52:11;1.40;;;1.30;;
1350;SDS011;669;50.206;9.998;2022-08-02T13:54:40;1.03;;;1.03;;
1350;SDS011;669;50.206;9.998;2022-08-02T13:57:08;2.20;;;1.23;;
1350;SDS011;669;50.206;9.998;2022-08-02T13:59:36;1.07;;;1.07;;
1350;SDS011;669;50.206;9.998;2022-08-02T14:02:24;1.10;;;1.10;;
1350;SDS011;669;50.206;9.998;2022-08-02T14:04:54;1.73;;;0.97;;
1350;SDS011;669;50.206;9.998;2022-08-02T14:07:23;1.00;;;1.00;;
1350;SDS011;669;50.206;9.998;2022-08-02T14:09:51;1.20;;;1.20;;
1350;SDS011;669;50.206;9.998;2022-08-02T14:12:19;1.20;;;1.20;;
1350;SDS011;669;50.206;9.998;2022-08-02T14:14:47;1.07;;;1.07;;
1350;SDS011;669;50.206;9.998;2022-08-02T14:17:15;1.43;;;1.40;;
1350;SDS011;669;50.206;9.998;2022-08-02T14:19:44;1.10;;;1.10;;
1350;SDS011;669;50.206;9.998;2022-08-02T14:22:13;1.27;;;1.17;;
1350;SDS011;669;50.206;9.998;2022-08-02T14:24:41;1.07;;;1.07;;
1350;SDS011;669;50.206;9.998;2022-08-02T14:27:09;1.20;;;1.20;;
1350;SDS011;669;50.206;9.998;2022-08-02T14:29:37;0.77;;;0.77;;
1350;SDS011;669;50.206;9.998;2022-08-02T14:32:06;2.20;;;1.43;;
1350;SDS011;669;50.206;9.998;2022-08-02T14:34:34;1.20;;;1.20;;
1350;SDS011;669;50.206;9.998;2022-08-02T14:37:02;0.93;;;0.93;;
1350;SDS011;669;50.206;9.998;2022-08-02T14:39:31;0.97;;;0.97;;
1350;SDS011;669;50.206;9.998;2022-08-02T14:42:19;1.27;;;1.17;;
1350;SDS011;669;50.206;9.998;2022-08-02T14:44:47;1.07;;;1.07;;
1350;SDS011;669;50.206;9.998;2022-08-02T14:47:15;1.20;;;1.20;;
1350;SDS011;669;50.206;9.998;2022-08-02T14:49:43;2.03;;;1.50;;
1350;SDS011;669;50.206;9.998;2022-08-02T14:52:15;1.33;;;1.00;;
1350;SDS011;669;50.206;9.998;2022-08-02T14:54:45;9.00;;;1.67;;
1350;SDS011;669;50.206;9.998;2022-08-02T14:57:13;1.20;;;1.20;;
1350;SDS011;669;50.206;9.998;2022-08-02T14:59:41;1.27;;;1.27;;
1350;SDS011;669;50.206;9.998;2022-08-02T15:02:09;3.50;;;1.37;;
1350;SDS011;669;50.206;9.998;2022-08-02T15:04:39;1.27;;;1.27;;
1350;SDS011;669;50.206;9.998;2022-08-02T15:07:09;1.00;;;1.00;;
1350;SDS011;669;50.206;9.998;2022-08-02T15:09:39;1.37;;;1.30;;
1350;SDS011;669;50.206;9.998;2022-08-02T15:12:09;1.60;;;1.50;;
1350;SDS011;669;50.206;9.998;2022-08-02T15:14:38;2.50;;;1.50;;
1350;SDS011;669;50.206;9.998;2022-08-02T15:17:06;1.53;;;1.43;;
1350;SDS011;669;50.206;9.998;2022-08-02T15:19:35;1.70;;;1.60;;
1350;SDS011;669;50.206;9.998;2022-08-02T15:22:23;1.50;;;1.40;;
1350;SDS011;669;50.206;9.998;2022-08-02T15:24:51;1.27;;;1.10;;
1350;SDS011;669;50.206;9.998;2022-08-02T15:27:20;0.90;;;0.90;;
1350;SDS011;669;50.206;9.998;2022-08-02T15:29:49;1.37;;;1.10;;
1350;SDS011;669;50.206;9.998;2022-08-02T15:32:17;0.97;;;0.97;;
1350;SDS011;669;50.206;9.998;2022-08-02T15:34:45;0.93;;;0.93;;
1350;SDS011;669;50.206;9.998;2022-08-02T15:37:13;1.70;;;1.33;;
1350;SDS011;669;50.206;9.998;2022-08-02T15:39:41;0.90;;;0.90;;
1350;SDS011;669;50.206;9.998;2022-08-02T15:42:10;1.30;;;1.30;;
1350;SDS011;669;50.206;9.998;2022-08-02T15:44:40;1.00;;;1.00;;
1350;SDS011;669;50.206;9.998;2022-08-02T15:47:10;1.17;;;1.17;;
1350;SDS011;669;50.206;9.998;2022-08-02T15:49:38;1.20;;;1.20;;
1350;SDS011;669;50.206;9.998;2022-08-02T15:52:07;1.57;;;1.53;;
1350;SDS011;669;50.206;9.998;2022-08-02T15:54:36;2.63;;;1.23;;
1350;SDS011;669;50.206;9.998;2022-08-02T15:57:04;1.33;;;1.33;;
1350;SDS011;669;50.206;9.998;2022-08-02T15:59:32;1.27;;;1.17;;
1350;SDS011;669;50.206;9.998;2022-08-02T16:02:01;1.30;;;1.30;;
1350;SDS011;669;50.206;9.998;2022-08-02T16:04:31;1.50;;;1.40;;
1350;SDS011;669;50.206;9.998;2022-08-02T16:06:59;1.43;;;1.30;;
1350;SDS011;669;50.206;9.998;2022-08-02T16:09:27;1.47;;;1.40;;
1350;SDS011;669;50.206;9.998;2022-08-02T16:11:55;2.70;;;1.60;;
1350;SDS011;669;50.206;9.998;2022-08-02T16:14:23;1.37;;;1.27;;
1350;SDS011;669;50.206;9.998;2022-08-02T16:16:51;1.17;;;1.13;;